Terminal Aerodrome Forecast
Issued by NWS Billings, MT

Home | Current Version | Previous Version | Text Only | Print | Product List | Glossary On
Versions: 1 2 3 4 5 6 7 8 9 10 11 12
000
FTUS45 KBYZ 230537
TAFSHR
TAF
KSHR 230537Z 2306/2406 VRB05KT P6SM SCT050 BKN070
     FM231300 32011KT P6SM VCSH SCT030 BKN070
     FM231600 33020G32KT 3SM -SHRA BR SCT009 OVC018
     FM232300 31015KT 6SM -SHRA BKN015 OVC030=

USA.gov is the U.S. government's official web portal to all federal, state and local government web resources and services.